createdAt,value
2022-10-08T00:02:44.940Z,15.68
2022-10-08T00:05:31.462Z,15.25
2022-10-08T00:08:17.326Z,15.73
2022-10-08T00:11:13.253Z,14.90
2022-10-08T00:13:59.894Z,15.85
2022-10-08T00:16:46.464Z,15.70
2022-10-08T00:19:32.436Z,15.03
2022-10-08T00:22:19.062Z,14.27
2022-10-08T00:25:05.288Z,16.40
2022-10-08T00:27:51.417Z,15.67
2022-10-08T00:30:39.824Z,15.27
2022-10-08T00:33:26.205Z,16.23
2022-10-08T00:36:13.433Z,15.93
2022-10-08T00:39:02.841Z,15.45
2022-10-08T00:41:52.284Z,18.15
2022-10-08T00:44:59.454Z,15.95
2022-10-08T00:47:48.414Z,15.30
2022-10-08T00:50:35.963Z,16.63
2022-10-08T00:53:21.801Z,14.82
2022-10-08T00:56:09.193Z,15.05
2022-10-08T00:58:55.610Z,14.85
2022-10-08T01:01:43.570Z,14.93
2022-10-08T01:04:29.902Z,15.55
2022-10-08T01:07:30.361Z,16.70
2022-10-08T01:10:22.625Z,15.35
2022-10-08T01:13:29.393Z,15.50
2022-10-08T01:16:34.969Z,14.73
2022-10-08T01:19:39.115Z,15.00
2022-10-08T01:22:38.863Z,15.45
2022-10-08T01:25:35.519Z,15.00
2022-10-08T01:28:39.874Z,13.77
2022-10-08T01:31:41.090Z,15.27
2022-10-08T01:34:37.668Z,14.23
2022-10-08T01:37:29.530Z,12.63
2022-10-08T01:40:20.340Z,14.90
2022-10-08T01:43:08.646Z,13.60
2022-10-08T01:45:57.362Z,13.40
2022-10-08T01:48:44.184Z,14.10
2022-10-08T01:51:40.988Z,13.93
2022-10-08T01:54:28.910Z,13.60
2022-10-08T01:57:14.966Z,15.02
2022-10-08T02:00:08.206Z,13.43
2022-10-08T02:02:57.964Z,13.62
2022-10-08T02:05:48.229Z,13.48
2022-10-08T02:08:34.322Z,13.90
2022-10-08T02:11:20.913Z,13.90
2022-10-08T02:14:07.394Z,14.63
2022-10-08T02:17:01.362Z,13.52
2022-10-08T02:19:53.398Z,14.65
2022-10-08T02:22:58.920Z,13.07
2022-10-08T02:25:48.220Z,12.98
2022-10-08T02:28:44.717Z,14.18
2022-10-08T02:32:06.160Z,12.90
2022-10-08T02:35:15.274Z,12.63
2022-10-08T02:38:06.901Z,13.85
2022-10-08T02:40:57.037Z,12.87
2022-10-08T02:43:47.168Z,13.37
2022-10-08T02:46:37.940Z,12.32
2022-10-08T02:49:27.639Z,12.60
2022-10-08T02:52:14.646Z,13.00
2022-10-08T02:55:01.598Z,12.37
2022-10-08T02:57:55.792Z,12.48
2022-10-08T03:01:04.113Z,12.40
2022-10-08T03:03:57.244Z,12.60
2022-10-08T03:06:43.665Z,12.40
2022-10-08T03:09:42.591Z,13.93
2022-10-08T03:12:30.349Z,13.70
2022-10-08T03:15:16.447Z,13.80
2022-10-08T03:18:04.322Z,13.30
2022-10-08T03:20:51.594Z,13.95
2022-10-08T03:23:37.571Z,14.38
2022-10-08T03:26:23.955Z,15.45
2022-10-08T03:29:10.082Z,13.77
2022-10-08T03:31:56.558Z,13.45
2022-10-08T03:34:42.439Z,12.97
2022-10-08T03:37:28.626Z,14.02
2022-10-08T03:40:14.809Z,14.40
2022-10-08T03:43:01.092Z,14.20
2022-10-08T03:45:53.767Z,12.70
2022-10-08T03:48:40.991Z,13.40
2022-10-08T03:51:27.223Z,14.30
2022-10-08T03:54:13.640Z,13.68
2022-10-08T03:56:59.431Z,13.70
2022-10-08T03:59:45.745Z,13.62
2022-10-08T04:02:35.102Z,15.60
2022-10-08T04:05:21.657Z,14.27
2022-10-08T04:08:07.445Z,12.90
2022-10-08T04:10:54.092Z,13.02
2022-10-08T04:13:40.936Z,12.45
2022-10-08T04:16:27.165Z,13.23
2022-10-08T04:19:13.135Z,12.30
2022-10-08T04:21:59.413Z,11.80
2022-10-08T04:24:45.771Z,12.17
2022-10-08T04:27:32.282Z,12.73
2022-10-08T04:30:18.490Z,12.50
2022-10-08T04:33:04.864Z,11.80
2022-10-08T04:35:50.764Z,11.60
2022-10-08T04:38:37.054Z,12.35
2022-10-08T04:41:25.640Z,12.67
2022-10-08T04:44:12.185Z,13.10
2022-10-08T04:46:57.991Z,13.20
2022-10-08T04:49:44.940Z,13.52
2022-10-08T04:52:31.925Z,14.45
2022-10-08T04:55:18.432Z,14.63
2022-10-08T04:58:04.627Z,14.00
2022-10-08T05:00:51.751Z,12.93
2022-10-08T05:03:43.141Z,13.00
2022-10-08T05:06:30.639Z,12.40
2022-10-08T05:09:16.693Z,12.35
2022-10-08T05:12:02.982Z,13.15
2022-10-08T05:14:49.294Z,13.25
2022-10-08T05:17:35.713Z,13.30
2022-10-08T05:20:21.591Z,12.90
2022-10-08T05:23:07.940Z,12.90
2022-10-08T05:25:53.683Z,13.02
2022-10-08T05:28:40.142Z,13.75
2022-10-08T05:31:28.107Z,14.70
2022-10-08T05:34:15.479Z,14.20
2022-10-08T05:37:02.017Z,14.23
2022-10-08T05:39:48.352Z,13.98
2022-10-08T05:42:34.491Z,14.35
2022-10-08T05:45:20.888Z,14.52
2022-10-08T05:48:06.659Z,16.92
2022-10-08T05:50:53.008Z,15.82
2022-10-08T05:53:40.301Z,15.73
2022-10-08T05:56:27.701Z,16.00
2022-10-08T05:59:22.722Z,16.40
2022-10-08T06:02:10.502Z,17.65
2022-10-08T06:04:57.259Z,16.80
2022-10-08T06:07:43.453Z,16.60
2022-10-08T06:10:32.013Z,17.77
2022-10-08T06:13:19.733Z,19.27
2022-10-08T06:16:08.520Z,20.83
2022-10-08T06:18:54.524Z,21.12
2022-10-08T06:21:40.883Z,20.83
2022-10-08T06:24:27.255Z,20.03
2022-10-08T06:27:13.541Z,20.77
2022-10-08T06:29:59.986Z,21.95
2022-10-08T06:32:46.678Z,23.58
2022-10-08T06:35:32.547Z,22.83
2022-10-08T06:38:19.204Z,25.08
2022-10-08T06:41:05.718Z,26.85
2022-10-08T06:43:52.541Z,25.25
2022-10-08T06:46:38.838Z,24.45
2022-10-08T06:49:26.804Z,23.75
2022-10-08T06:52:13.100Z,24.40
2022-10-08T06:54:59.476Z,23.92
2022-10-08T06:57:48.358Z,24.17
2022-10-08T07:00:35.171Z,23.38
2022-10-08T07:03:21.344Z,22.92
2022-10-08T07:06:10.193Z,22.08
2022-10-08T07:09:00.116Z,22.10
2022-10-08T07:11:46.366Z,20.90
2022-10-08T07:14:32.680Z,20.73
2022-10-08T07:17:19.314Z,20.12
2022-10-08T07:20:06.188Z,19.73
2022-10-08T07:22:52.550Z,18.93
2022-10-08T07:25:38.661Z,27.58
2022-10-08T07:28:26.413Z,27.15
2022-10-08T07:31:21.440Z,20.92
2022-10-08T07:34:11.321Z,20.25
2022-10-08T07:36:57.303Z,19.15
2022-10-08T07:39:43.866Z,20.25
2022-10-08T07:42:31.730Z,18.98
2022-10-08T07:45:18.286Z,19.58
2022-10-08T07:48:04.562Z,18.15
2022-10-08T07:50:51.039Z,19.12
2022-10-08T07:53:37.058Z,20.30
2022-10-08T07:56:23.612Z,16.08
2022-10-08T07:59:09.698Z,16.80
2022-10-08T08:01:56.207Z,17.98
2022-10-08T08:04:42.639Z,16.25
2022-10-08T08:07:29.502Z,15.55
2022-10-08T08:10:15.853Z,15.57
2022-10-08T08:13:01.813Z,15.05
2022-10-08T08:15:48.093Z,14.73
2022-10-08T08:18:37.152Z,14.40
2022-10-08T08:21:33.949Z,13.65
2022-10-08T08:24:19.970Z,15.80
2022-10-08T08:27:06.400Z,14.57
2022-10-08T08:29:52.756Z,14.67
2022-10-08T08:32:39.138Z,13.97
2022-10-08T08:35:25.695Z,13.60
2022-10-08T08:38:11.853Z,14.27
2022-10-08T08:41:11.836Z,13.60
2022-10-08T08:44:02.694Z,13.37
2022-10-08T08:46:59.126Z,12.82
2022-10-08T08:50:21.329Z,13.07
2022-10-08T08:53:09.502Z,13.25
2022-10-08T08:55:58.889Z,12.77
2022-10-08T08:59:05.307Z,13.13
2022-10-08T09:01:54.837Z,19.50
2022-10-08T09:04:45.492Z,12.98
2022-10-08T09:07:55.699Z,12.88
2022-10-08T09:10:47.716Z,13.48
2022-10-08T09:13:37.917Z,13.70
2022-10-08T09:16:25.417Z,14.57
2022-10-08T09:19:12.208Z,13.90
2022-10-08T09:21:58.113Z,13.10
2022-10-08T09:24:44.525Z,12.00
2022-10-08T09:28:05.961Z,13.65
2022-10-08T09:30:53.438Z,13.05
2022-10-08T09:33:41.787Z,12.40
2022-10-08T09:36:35.205Z,12.90
2022-10-08T09:39:22.144Z,12.63
2022-10-08T09:42:08.359Z,12.50
2022-10-08T09:45:00.648Z,12.75
2022-10-08T09:48:10.102Z,13.20
2022-10-08T09:51:00.437Z,11.55
2022-10-08T09:53:50.094Z,11.38
2022-10-08T09:56:35.932Z,10.60
2022-10-08T09:59:23.713Z,12.60
2022-10-08T10:02:39.167Z,12.50
2022-10-08T10:05:27.522Z,12.27
2022-10-08T10:08:43.373Z,10.60
2022-10-08T10:11:34.828Z,10.20
2022-10-08T10:14:28.227Z,9.15
2022-10-08T10:17:39.552Z,8.90
2022-10-08T10:20:37.447Z,7.97
2022-10-08T10:23:50.439Z,8.35
2022-10-08T10:26:39.445Z,8.50
2022-10-08T10:29:30.869Z,7.80
2022-10-08T14:39:00.685Z,5.18
2022-10-08T14:41:47.149Z,5.57
2022-10-08T15:15:21.368Z,5.25
2022-10-08T15:18:07.880Z,6.15
2022-10-08T15:20:55.690Z,5.15
